Time;durP1;ratioP1;P1;durP2;ratioP2;P2;SDS_P1;SDS_P2;PMS_P1;PMS_P2;Temp;Humidity;BMP_temperature;BMP_pressure;BME280_temperature;BME280_humidity;BME280_pressure;Samples;Min_cycle;Max_cycle;Signal;HPM_P1;HPM_P2
2022/11/09 00:02:22;;;;;;;4.43;2.65;;;12.80;99.90;;;;;;5056977;28;20032;-34
2022/11/09 00:04:48;;;;;;;4.72;2.67;;;12.80;99.90;;;;;;5068848;28;20043;-34
2022/11/09 00:07:14;;;;;;;6.10;3.22;;;12.70;99.90;;;;;;5067040;28;20075;-32
2022/11/09 00:09:39;;;;;;;4.47;2.80;;;12.70;99.90;;;;;;5049598;28;20044;-32
2022/11/09 00:12:06;;;;;;;4.35;2.90;;;12.70;99.90;;;;;;5060085;28;20039;-31
2022/11/09 00:14:33;;;;;;;5.30;2.75;;;12.60;99.90;;;;;;5058311;28;20032;-34
2022/11/09 00:16:59;;;;;;;6.93;3.22;;;12.60;99.90;;;;;;5064506;28;20041;-31
2022/11/09 00:19:25;;;;;;;4.63;3.20;;;12.60;99.90;;;;;;5055693;28;20032;-33
2022/11/09 00:21:51;;;;;;;4.18;2.70;;;12.60;99.90;;;;;;5066692;28;20432;-32
2022/11/09 00:24:16;;;;;;;3.95;2.95;;;12.60;99.90;;;;;;5079552;28;20612;-33
2022/11/09 00:26:42;;;;;;;3.85;2.70;;;12.60;99.90;;;;;;5071809;28;20067;-31
2022/11/09 00:29:08;;;;;;;6.00;3.38;;;12.60;99.90;;;;;;5059028;28;20037;-32
2022/11/09 00:31:34;;;;;;;3.83;2.83;;;12.60;99.90;;;;;;5053701;28;20037;-33
2022/11/09 00:34:00;;;;;;;4.88;3.10;;;12.60;99.90;;;;;;5066158;28;20048;-31
2022/11/09 00:36:27;;;;;;;6.35;3.05;;;12.60;99.90;;;;;;5069796;28;20036;-30
2022/11/09 00:38:56;;;;;;;3.90;2.55;;;12.70;99.90;;;;;;5053080;28;20111;-34
2022/11/09 00:41:23;;;;;;;5.03;3.05;;;12.70;99.90;;;;;;5055365;28;20555;-32
2022/11/09 00:43:49;;;;;;;7.22;3.08;;;12.70;99.90;;;;;;5083127;28;20070;-31
2022/11/09 00:46:16;;;;;;;6.65;2.85;;;12.70;99.90;;;;;;5054514;28;20073;-33
2022/11/09 00:48:42;;;;;;;6.43;2.70;;;12.70;99.90;;;;;;5059251;28;20071;-33
2022/11/09 00:51:08;;;;;;;5.00;3.15;;;12.70;99.90;;;;;;5046574;28;20072;-33
2022/11/09 00:53:34;;;;;;;5.20;2.70;;;12.70;99.90;;;;;;5058400;28;20124;-32
2022/11/09 00:56:02;;;;;;;6.60;2.85;;;12.70;99.90;;;;;;5070635;28;20119;-32
2022/11/09 00:58:30;;;;;;;4.47;3.03;;;12.70;99.90;;;;;;5070632;28;20036;-31
2022/11/09 01:00:57;;;;;;;4.43;2.72;;;12.80;99.90;;;;;;5048192;28;20029;-31
2022/11/09 01:03:24;;;;;;;4.70;3.13;;;12.80;99.90;;;;;;5050336;28;20406;-32
2022/11/09 01:05:50;;;;;;;6.30;2.80;;;12.80;99.90;;;;;;5054185;28;20114;-31
2022/11/09 01:08:16;;;;;;;4.93;2.75;;;12.90;99.90;;;;;;5048215;28;20059;-31
2022/11/09 01:10:45;;;;;;;4.50;2.88;;;12.90;99.90;;;;;;5067976;28;20029;-33
2022/11/09 01:13:13;;;;;;;4.75;2.95;;;12.90;99.90;;;;;;5055472;28;20040;-32
2022/11/09 01:15:51;;;;;;;5.03;2.65;;;12.90;99.90;;;;;;5052400;28;20121;-31
2022/11/09 01:18:18;;;;;;;4.75;2.78;;;12.90;99.90;;;;;;5054199;28;20058;-34
2022/11/09 01:20:47;;;;;;;5.28;2.75;;;12.90;99.90;;;;;;5072469;28;20266;-32
2022/11/09 01:23:15;;;;;;;6.25;2.70;;;12.90;99.90;;;;;;5062597;28;20504;-32
2022/11/09 01:25:41;;;;;;;4.60;2.60;;;12.90;99.90;;;;;;5081005;28;20099;-35
2022/11/09 01:28:08;;;;;;;5.93;2.85;;;12.80;99.90;;;;;;5054042;28;20421;-30
2022/11/09 01:30:36;;;;;;;5.50;3.20;;;12.80;99.90;;;;;;5053645;28;20036;-33
2022/11/09 01:33:06;;;;;;;4.18;2.63;;;12.80;99.90;;;;;;5057925;28;20040;-32
2022/11/09 01:35:36;;;;;;;4.63;2.70;;;12.80;99.90;;;;;;5067558;28;20052;-32
2022/11/09 01:38:06;;;;;;;6.22;2.95;;;12.70;99.90;;;;;;5043434;28;20048;-33
2022/11/09 01:40:33;;;;;;;5.63;2.85;;;12.70;99.90;;;;;;5068598;28;20078;-31
2022/11/09 01:43:16;;;;;;;4.03;2.45;;;12.70;99.90;;;;;;5072799;28;20720;-33
2022/11/09 01:45:47;;;;;;;6.35;2.83;;;12.70;99.90;;;;;;5057784;28;20047;-32
2022/11/09 01:48:17;;;;;;;6.50;2.80;;;12.70;99.90;;;;;;5063942;28;20090;-33
2022/11/09 01:50:49;;;;;;;6.82;2.65;;;12.70;99.90;;;;;;5065020;28;20047;-32
2022/11/09 01:53:30;;;;;;;6.15;3.67;;;12.70;99.90;;;;;;5052442;28;20045;-34
2022/11/09 01:56:01;;;;;;;5.03;2.50;;;12.70;99.90;;;;;;5066795;28;20040;-31
2022/11/09 01:58:43;;;;;;;6.25;2.70;;;12.70;99.90;;;;;;5043888;28;20035;-33
2022/11/09 02:01:10;;;;;;;6.35;2.80;;;12.70;99.90;;;;;;5062452;28;20033;-33
2022/11/09 02:03:46;;;;;;;5.13;3.10;;;12.70;99.90;;;;;;5070199;28;20040;-31
2022/11/09 02:06:14;;;;;;;8.95;2.35;;;12.80;99.90;;;;;;5050024;28;20085;-34
2022/11/09 02:08:41;;;;;;;6.97;2.58;;;12.80;99.90;;;;;;5065519;28;20040;-31
2022/11/09 02:11:10;;;;;;;6.82;2.42;;;12.80;99.90;;;;;;5076922;28;20523;-32
2022/11/09 02:13:40;;;;;;;6.32;2.60;;;12.80;99.90;;;;;;5053091;28;20037;-32
2022/11/09 02:16:07;;;;;;;5.22;2.15;;;12.80;99.90;;;;;;5048118;28;20120;-33
2022/11/09 02:18:33;;;;;;;6.03;2.58;;;12.70;99.90;;;;;;5047440;28;20036;-32
2022/11/09 02:20:59;;;;;;;8.48;2.58;;;12.70;99.90;;;;;;5070393;28;20047;-32
2022/11/09 02:23:25;;;;;;;3.67;2.05;;;12.70;99.90;;;;;;5063252;28;20127;-33
2022/11/09 02:25:56;;;;;;;6.53;2.35;;;12.70;99.90;;;;;;5082250;28;20036;-32
2022/11/09 02:28:22;;;;;;;4.55;2.28;;;12.60;99.90;;;;;;5053157;28;20041;-32
2022/11/09 02:30:52;;;;;;;8.70;3.58;;;12.60;99.90;;;;;;5069965;28;20486;-34
2022/11/09 02:33:18;;;;;;;6.43;2.60;;;12.60;99.90;;;;;;5048810;28;20124;-32
2022/11/09 02:35:44;;;;;;;5.47;2.47;;;12.60;99.90;;;;;;5053120;28;20124;-34
2022/11/09 02:38:11;;;;;;;3.78;2.20;;;12.60;99.90;;;;;;5052858;28;20032;-36
2022/11/09 02:40:39;;;;;;;4.50;2.65;;;12.60;99.90;;;;;;5053416;28;20456;-31
2022/11/09 02:43:07;;;;;;;8.52;2.67;;;12.60;99.90;;;;;;5070143;28;20115;-32
2022/11/09 02:45:33;;;;;;;6.65;2.95;;;12.50;99.90;;;;;;5065421;28;20037;-33
2022/11/09 02:47:58;;;;;;;6.20;2.75;;;12.60;99.90;;;;;;5044860;28;20041;-31
2022/11/09 02:50:25;;;;;;;6.75;2.58;;;12.60;99.90;;;;;;5045117;28;20037;-33
2022/11/09 02:52:51;;;;;;;5.68;2.67;;;12.60;99.90;;;;;;5069728;28;20040;-34
2022/11/09 02:55:16;;;;;;;6.13;2.05;;;12.60;99.90;;;;;;5065684;28;20047;-32
2022/11/09 02:57:42;;;;;;;7.57;2.40;;;12.60;99.90;;;;;;5073196;28;20033;-32
2022/11/09 03:00:09;;;;;;;5.93;2.55;;;12.60;99.90;;;;;;5072790;28;20068;-33
2022/11/09 03:02:35;;;;;;;5.35;2.05;;;12.60;99.90;;;;;;5079697;28;20028;-32
2022/11/09 03:05:00;;;;;;;5.85;2.42;;;12.50;99.90;;;;;;5064641;28;20037;-32
2022/11/09 03:07:26;;;;;;;5.57;2.45;;;12.50;99.90;;;;;;5089128;28;20036;-33
2022/11/09 03:09:52;;;;;;;6.47;2.63;;;12.50;99.90;;;;;;5065842;28;20089;-34
2022/11/09 03:12:27;;;;;;;6.20;2.47;;;12.50;99.90;;;;;;5077628;28;20443;-33
2022/11/09 03:14:57;;;;;;;5.72;2.35;;;12.50;99.90;;;;;;5065897;28;20035;-32
2022/11/09 03:17:23;;;;;;;6.75;2.35;;;12.50;99.90;;;;;;5074074;28;20064;-33
2022/11/09 03:19:49;;;;;;;7.30;2.55;;;12.50;99.90;;;;;;5066051;28;20063;-33
2022/11/09 03:22:15;;;;;;;5.75;2.15;;;12.40;99.90;;;;;;5054686;28;20486;-32
2022/11/09 03:24:41;;;;;;;10.98;3.38;;;12.30;99.90;;;;;;5072305;28;20058;-34
2022/11/09 03:27:07;;;;;;;6.22;2.35;;;12.30;99.90;;;;;;5087078;28;20043;-32
2022/11/09 03:29:32;;;;;;;4.95;1.92;;;12.30;99.90;;;;;;5072217;28;20044;-34
2022/11/09 03:31:58;;;;;;;7.03;2.53;;;12.20;99.90;;;;;;5072758;28;20036;-36
2022/11/09 03:34:24;;;;;;;4.60;2.50;;;12.30;99.90;;;;;;5060822;28;20455;-33
2022/11/09 03:36:50;;;;;;;4.93;2.67;;;12.30;99.90;;;;;;5045033;28;20116;-33
2022/11/09 03:39:16;;;;;;;6.20;2.53;;;12.30;99.90;;;;;;5052240;28;20036;-31
2022/11/09 03:41:41;;;;;;;5.13;2.88;;;12.30;99.90;;;;;;5072542;28;20132;-32
2022/11/09 03:44:07;;;;;;;6.13;2.72;;;12.30;99.90;;;;;;5071809;28;20061;-31
2022/11/09 03:46:33;;;;;;;6.50;2.90;;;12.20;99.90;;;;;;5057835;28;20041;-33
2022/11/09 03:48:59;;;;;;;7.15;2.55;;;12.20;99.90;;;;;;5071913;28;20394;-34
2022/11/09 03:51:25;;;;;;;7.35;2.70;;;12.20;99.90;;;;;;5073296;28;20040;-32
2022/11/09 03:53:51;;;;;;;5.72;2.60;;;12.20;99.90;;;;;;5052582;28;20060;-32
2022/11/09 03:56:17;;;;;;;6.85;2.50;;;12.10;99.90;;;;;;5058095;28;20037;-32
2022/11/09 03:58:43;;;;;;;10.35;3.15;;;12.20;99.90;;;;;;5047439;28;20033;-32
2022/11/09 04:01:09;;;;;;;5.15;2.65;;;12.10;99.90;;;;;;5034109;28;20069;-32
2022/11/09 04:03:36;;;;;;;6.07;2.70;;;12.10;99.90;;;;;;5071935;28;20047;-34
2022/11/09 04:06:02;;;;;;;4.68;2.38;;;12.10;99.90;;;;;;5060743;28;20037;-31
2022/11/09 04:08:28;;;;;;;7.38;3.10;;;12.20;99.90;;;;;;5071991;28;20044;-36
2022/11/09 04:10:53;;;;;;;6.43;2.40;;;12.30;99.90;;;;;;5069457;28;20040;-32
2022/11/09 04:13:19;;;;;;;4.63;2.47;;;12.30;99.90;;;;;;5052789;28;20051;-32
2022/11/09 04:15:45;;;;;;;4.32;2.50;;;12.30;99.90;;;;;;5051909;28;20504;-31
2022/11/09 04:18:13;;;;;;;4.03;2.38;;;12.40;99.90;;;;;;5066846;28;20398;-32
2022/11/09 04:20:40;;;;;;;6.47;2.33;;;12.40;99.90;;;;;;5059497;28;20064;-32
2022/11/09 04:23:08;;;;;;;7.97;2.78;;;12.50;99.90;;;;;;5057842;28;20037;-33
2022/11/09 04:25:37;;;;;;;6.55;2.50;;;12.50;99.90;;;;;;5071596;28;20119;-33
2022/11/09 04:28:04;;;;;;;5.13;2.72;;;12.50;99.90;;;;;;5071649;28;20040;-33
2022/11/09 04:30:32;;;;;;;3.97;2.13;;;12.50;99.90;;;;;;5071900;28;20545;-32
2022/11/09 04:32:59;;;;;;;4.60;2.25;;;12.50;99.90;;;;;;5068661;28;20036;-32
2022/11/09 04:35:26;;;;;;;6.40;2.35;;;12.50;99.90;;;;;;5072879;28;20128;-35
2022/11/09 04:38:00;;;;;;;7.45;2.40;;;12.50;99.90;;;;;;5054232;28;20045;-33
2022/11/09 04:40:27;;;;;;;;;;;12.50;99.90;;;;;;5068506;28;20532;-31
2022/11/09 04:42:53;;;;;;;6.35;2.78;;;12.40;99.90;;;;;;5058168;28;19920;-33
2022/11/09 04:45:19;;;;;;;4.97;2.50;;;12.40;99.90;;;;;;5062951;28;20619;-33
2022/11/09 04:47:45;;;;;;;3.70;2.22;;;12.40;99.90;;;;;;5070959;28;20033;-33
2022/11/09 04:50:11;;;;;;;4.03;2.80;;;12.40;99.90;;;;;;5060073;28;20029;-35
2022/11/09 04:52:37;;;;;;;8.70;2.55;;;12.40;99.90;;;;;;5070652;28;20033;-33
2022/11/09 04:55:03;;;;;;;7.00;2.50;;;12.40;99.90;;;;;;5071122;28;20032;-34
2022/11/09 04:57:29;;;;;;;5.75;2.53;;;12.30;99.90;;;;;;5045395;28;20047;-33
2022/11/09 04:59:55;;;;;;;6.47;2.40;;;12.30;99.90;;;;;;5070496;28;20032;-33
2022/11/09 05:02:21;;;;;;;7.25;2.88;;;12.40;99.90;;;;;;5051333;28;20044;-32
2022/11/09 05:04:46;;;;;;;4.82;2.38;;;12.40;99.90;;;;;;5036907;28;20494;-31
2022/11/09 05:07:12;;;;;;;6.28;2.50;;;12.40;99.90;;;;;;5069836;28;20397;-33
2022/11/09 05:09:38;;;;;;;4.88;2.75;;;12.30;99.90;;;;;;5046122;28;20128;-32
2022/11/09 05:12:04;;;;;;;5.13;2.40;;;12.30;99.90;;;;;;5073026;28;20062;-34
2022/11/09 05:14:30;;;;;;;7.63;2.63;;;12.20;99.90;;;;;;5069167;28;20044;-33
2022/11/09 05:16:56;;;;;;;4.15;2.22;;;12.20;99.90;;;;;;5081828;28;20114;-34
2022/11/09 05:19:21;;;;;;;7.78;2.97;;;12.20;99.90;;;;;;5056511;28;20036;-32
2022/11/09 05:21:47;;;;;;;8.48;3.03;;;12.20;99.90;;;;;;5054224;28;20090;-32
2022/11/09 05:24:13;;;;;;;4.75;2.33;;;12.20;99.90;;;;;;5063243;28;20072;-32
2022/11/09 05:26:40;;;;;;;7.57;2.92;;;12.20;99.90;;;;;;5071659;28;20040;-33
2022/11/09 05:29:11;;;;;;;4.57;2.30;;;12.20;99.90;;;;;;5062967;28;20036;-32
2022/11/09 05:31:38;;;;;;;4.78;2.28;;;12.20;99.90;;;;;;5070400;28;20221;-34
2022/11/09 05:34:05;;;;;;;3.58;2.08;;;12.20;99.90;;;;;;5064166;28;20604;-36
2022/11/09 05:36:32;;;;;;;5.53;2.22;;;12.20;99.90;;;;;;5056067;28;20047;-33
2022/11/09 05:38:58;;;;;;;5.20;2.33;;;12.20;99.90;;;;;;5070536;28;20417;-35
2022/11/09 05:41:25;;;;;;;5.28;2.30;;;12.20;99.90;;;;;;5063434;28;20047;-33
2022/11/09 05:43:50;;;;;;;5.40;2.20;;;12.20;99.90;;;;;;5070265;28;20043;-32
2022/11/09 05:46:18;;;;;;;6.88;3.67;;;12.30;99.90;;;;;;5044082;28;20124;-31
2022/11/09 05:48:44;;;;;;;4.72;2.78;;;12.30;99.90;;;;;;5051961;28;20037;-33
2022/11/09 05:51:12;;;;;;;5.60;2.70;;;12.30;99.90;;;;;;5056518;28;20037;-35
2022/11/09 05:53:38;;;;;;;5.88;2.40;;;12.20;99.90;;;;;;5053103;28;20036;-32
2022/11/09 05:56:06;;;;;;;7.10;2.60;;;12.10;99.90;;;;;;5069851;28;20063;-32
2022/11/09 05:58:35;;;;;;;6.90;3.40;;;12.10;99.90;;;;;;5063186;28;20486;-32
2022/11/09 06:01:06;;;;;;;6.53;2.40;;;12.10;99.90;;;;;;5056945;28;20040;-32
2022/11/09 06:03:31;;;;;;;5.75;2.38;;;12.10;99.90;;;;;;5059132;28;20051;-33
2022/11/09 06:06:03;;;;;;;8.45;2.60;;;12.00;99.90;;;;;;5058934;28;20040;-33
2022/11/09 06:08:29;;;;;;;5.05;2.50;;;12.00;99.90;;;;;;5040993;28;20486;-32
2022/11/09 06:10:59;;;;;;;5.75;2.00;;;12.00;99.90;;;;;;5070075;28;20039;-32
2022/11/09 06:13:25;;;;;;;5.32;2.60;;;11.90;99.90;;;;;;5056467;28;20051;-32
2022/11/09 06:15:56;;;;;;;5.90;2.25;;;11.90;99.90;;;;;;5069394;28;20402;-34
2022/11/09 06:18:23;;;;;;;6.80;2.70;;;11.90;99.90;;;;;;5063744;28;20443;-33
2022/11/09 06:20:53;;;;;;;8.07;2.15;;;11.90;99.90;;;;;;5069649;28;20098;-34
2022/11/09 06:23:24;;;;;;;7.32;2.47;;;11.80;99.90;;;;;;5074217;28;20115;-33
2022/11/09 06:25:57;;;;;;;5.57;2.58;;;11.80;99.90;;;;;;5054143;28;20315;-34
2022/11/09 06:28:22;;;;;;;8.75;2.60;;;11.80;99.90;;;;;;5070236;28;20508;-31
2022/11/09 06:30:48;;;;;;;5.20;2.20;;;11.80;99.90;;;;;;5067903;28;20036;-32
2022/11/09 06:33:15;;;;;;;4.70;2.22;;;11.80;99.90;;;;;;5064414;28;20177;-33
2022/11/09 06:35:41;;;;;;;7.00;2.42;;;11.80;99.90;;;;;;5053894;28;20079;-33
2022/11/09 06:38:10;;;;;;;4.75;2.40;;;11.70;99.90;;;;;;5074050;28;20132;-32
2022/11/09 06:40:36;;;;;;;5.82;2.05;;;11.70;99.90;;;;;;5072476;28;20125;-35
2022/11/09 06:43:02;;;;;;;6.18;1.88;;;11.70;99.90;;;;;;5071193;28;20115;-32
2022/11/09 06:45:29;;;;;;;6.82;2.30;;;11.70;99.90;;;;;;5073775;28;20048;-33
2022/11/09 06:47:57;;;;;;;6.85;2.47;;;11.70;99.90;;;;;;5065532;28;20041;-32
2022/11/09 06:50:23;;;;;;;7.50;2.67;;;11.70;99.90;;;;;;5073667;28;20078;-36
2022/11/09 06:52:49;;;;;;;5.75;2.15;;;11.70;99.90;;;;;;5061121;28;20072;-34
2022/11/09 06:55:14;;;;;;;7.97;2.45;;;11.60;99.90;;;;;;5068503;28;20426;-35
2022/11/09 06:57:40;;;;;;;6.25;2.38;;;11.60;99.90;;;;;;5073013;28;20036;-33
2022/11/09 07:00:07;;;;;;;6.65;2.22;;;11.60;99.90;;;;;;5077048;28;20024;-32
2022/11/09 07:02:32;;;;;;;8.25;2.75;;;11.50;99.90;;;;;;5074454;28;20414;-32
2022/11/09 07:04:58;;;;;;;6.05;2.20;;;11.60;99.90;;;;;;5053621;28;20043;-36
2022/11/09 07:07:24;;;;;;;6.78;2.28;;;11.60;99.90;;;;;;5074910;28;20397;-32
2022/11/09 07:09:50;;;;;;;6.97;2.60;;;11.60;99.90;;;;;;5051175;28;20115;-32
2022/11/09 07:12:15;;;;;;;7.20;2.47;;;11.50;99.90;;;;;;5043032;28;20089;-31
2022/11/09 07:14:41;;;;;;;6.97;2.80;;;11.50;99.90;;;;;;5072587;28;20093;-32
2022/11/09 07:17:07;;;;;;;8.73;2.70;;;11.50;99.90;;;;;;5050241;28;20120;-32
2022/11/09 07:19:32;;;;;;;8.23;2.80;;;11.50;99.90;;;;;;5061288;28;20551;-33
2022/11/09 07:21:58;;;;;;;9.18;2.85;;;11.50;99.90;;;;;;5052358;28;20047;-36
2022/11/09 07:24:24;;;;;;;9.45;2.88;;;11.50;99.90;;;;;;5057005;28;20478;-32
2022/11/09 07:26:49;;;;;;;12.13;2.70;;;11.50;99.90;;;;;;5057605;28;20040;-31
2022/11/09 07:29:15;;;;;;;6.30;2.40;;;11.50;99.90;;;;;;5075024;28;20083;-32
2022/11/09 07:31:41;;;;;;;12.07;2.80;;;11.50;99.90;;;;;;5060237;28;20040;-35
2022/11/09 07:34:10;;;;;;;9.25;2.85;;;11.50;99.90;;;;;;5072403;28;20032;-33
2022/11/09 07:36:35;;;;;;;11.57;3.20;;;11.60;99.90;;;;;;5084070;28;20288;-33
2022/11/09 07:39:02;;;;;;;7.95;2.75;;;11.60;99.90;;;;;;5076477;28;20043;-33
2022/11/09 07:41:28;;;;;;;5.65;3.03;;;11.70;99.90;;;;;;5073958;28;20508;-33
2022/11/09 07:43:53;;;;;;;7.75;3.17;;;11.70;99.90;;;;;;5052437;28;20072;-32
2022/11/09 07:46:19;;;;;;;9.52;4.45;;;11.70;99.90;;;;;;5063552;28;20059;-34
2022/11/09 07:48:45;;;;;;;8.10;2.85;;;11.70;99.90;;;;;;5059018;28;20052;-33
2022/11/09 07:51:11;;;;;;;8.80;3.15;;;11.70;99.90;;;;;;5072449;28;20040;-32
2022/11/09 07:53:37;;;;;;;9.25;3.00;;;11.80;99.90;;;;;;5058122;28;20045;-31
2022/11/09 07:56:03;;;;;;;8.65;3.40;;;11.80;99.90;;;;;;5075979;28;20040;-34
2022/11/09 07:58:29;;;;;;;9.57;3.28;;;11.90;99.90;;;;;;5069998;28;20037;-32
2022/11/09 08:00:55;;;;;;;7.47;2.65;;;11.90;99.90;;;;;;5061721;28;20513;-34
2022/11/09 08:03:24;;;;;;;6.50;2.28;;;12.00;99.90;;;;;;5059111;28;20389;-36
2022/11/09 08:05:50;;;;;;;9.40;2.60;;;12.10;99.90;;;;;;5058942;28;20040;-36
2022/11/09 08:08:16;;;;;;;9.55;3.03;;;12.10;99.90;;;;;;5070101;28;20047;-34
2022/11/09 08:10:49;;;;;;;6.82;2.28;;;12.20;99.90;;;;;;5057470;28;20114;-32
2022/11/09 08:13:16;;;;;;;;;;;12.30;99.90;;;;;;5056487;28;20049;-32
2022/11/09 08:15:42;;;;;;;6.22;2.38;;;12.50;99.90;;;;;;5054829;28;19969;-34
2022/11/09 08:18:14;;;;;;;7.38;2.53;;;12.80;99.90;;;;;;5071688;28;20032;-35
2022/11/09 08:20:40;;;;;;;10.07;3.13;;;13.20;99.90;;;;;;5051843;28;20032;-31
2022/11/09 08:23:06;;;;;;;5.75;2.42;;;13.60;99.90;;;;;;5068893;28;20094;-30
2022/11/09 08:25:35;;;;;;;6.53;2.60;;;14.00;99.90;;;;;;5071856;28;20494;-30
2022/11/09 08:28:05;;;;;;;8.63;2.95;;;14.10;99.90;;;;;;5072000;28;20072;-30
2022/11/09 08:30:31;;;;;;;7.95;2.53;;;14.20;99.90;;;;;;5054888;28;20052;-29
2022/11/09 08:32:58;;;;;;;7.20;2.88;;;14.20;99.90;;;;;;5072080;28;20111;-31
2022/11/09 08:35:24;;;;;;;9.77;2.63;;;14.40;99.90;;;;;;5072065;28;20040;-31
2022/11/09 08:37:52;;;;;;;10.25;2.72;;;14.60;99.90;;;;;;5072138;28;20528;-30
2022/11/09 08:40:20;;;;;;;9.82;2.72;;;14.70;99.90;;;;;;5071795;28;20033;-29
2022/11/09 08:42:47;;;;;;;9.20;2.55;;;14.90;99.90;;;;;;5071834;28;20479;-29
2022/11/09 08:45:13;;;;;;;7.07;2.35;;;14.90;99.90;;;;;;5071763;28;20043;-29
2022/11/09 08:47:39;;;;;;;7.80;2.30;;;15.00;99.90;;;;;;5071492;28;20036;-30
2022/11/09 08:50:06;;;;;;;6.75;2.53;;;14.90;99.90;;;;;;5071377;28;20049;-32
2022/11/09 08:52:32;;;;;;;11.25;3.15;;;14.70;99.90;;;;;;5070750;28;20420;-29
2022/11/09 08:54:58;;;;;;;6.30;3.00;;;14.50;99.90;;;;;;5071187;28;20051;-30
2022/11/09 08:57:24;;;;;;;7.47;2.47;;;14.40;99.90;;;;;;5071479;28;20044;-29
2022/11/09 08:59:50;;;;;;;8.85;2.50;;;14.40;99.90;;;;;;5071490;28;20150;-30
2022/11/09 09:02:16;;;;;;;7.22;3.00;;;14.60;99.90;;;;;;5071469;28;20513;-33
2022/11/09 09:04:42;;;;;;;9.50;3.28;;;14.70;99.90;;;;;;5071398;28;20541;-29
2022/11/09 09:07:08;;;;;;;7.13;2.78;;;14.90;99.90;;;;;;5071429;28;20394;-30
2022/11/09 09:09:34;;;;;;;13.32;3.20;;;15.20;99.90;;;;;;5071379;28;20040;-30
2022/11/09 09:12:00;;;;;;;6.45;2.38;;;15.40;99.90;;;;;;5071045;28;20490;-30
2022/11/09 09:14:26;;;;;;;7.30;2.80;;;15.80;99.90;;;;;;5070776;28;20072;-29
2022/11/09 09:16:51;;;;;;;7.18;2.30;;;16.10;99.90;;;;;;5071082;28;20075;-29
2022/11/09 09:19:17;;;;;;;6.78;2.42;;;16.20;99.90;;;;;;5071339;28;20064;-31
2022/11/09 09:21:43;;;;;;;10.30;3.13;;;16.20;99.90;;;;;;5070943;28;20502;-29
2022/11/09 09:24:09;;;;;;;7.72;2.50;;;16.00;99.90;;;;;;5054074;28;20040;-30
2022/11/09 09:26:35;;;;;;;6.80;3.25;;;15.70;99.90;;;;;;5071281;28;20501;-32
2022/11/09 09:29:00;;;;;;;8.57;2.83;;;15.80;99.90;;;;;;5070937;28;20044;-32
2022/11/09 09:31:27;;;;;;;9.98;2.95;;;15.70;99.90;;;;;;5070888;28;20048;-32
2022/11/09 09:33:53;;;;;;;9.73;2.65;;;15.90;99.90;;;;;;5071146;28;20033;-30
2022/11/09 09:36:21;;;;;;;8.30;2.80;;;15.90;99.90;;;;;;5071025;28;20494;-31
2022/11/09 09:38:52;;;;;;;8.32;3.15;;;15.70;99.90;;;;;;5070982;28;20035;-30
2022/11/09 09:41:22;;;;;;;11.52;3.20;;;15.40;99.90;;;;;;5070913;28;20032;-31
2022/11/09 09:43:52;;;;;;;9.07;2.88;;;15.20;99.90;;;;;;5070997;28;20044;-30
2022/11/09 09:46:24;;;;;;;7.93;2.88;;;15.00;99.90;;;;;;5070936;28;20072;-30
2022/11/09 09:49:24;;;;;;;8.98;2.65;;;15.30;99.90;;;;;;5072022;28;20378;-31
2022/11/09 09:52:00;;;;;;;7.65;2.42;;;15.50;99.90;;;;;;5065147;28;20438;-31
2022/11/09 09:54:33;;;;;;;7.00;2.85;;;15.70;99.90;;;;;;5073454;28;20048;-30
2022/11/09 09:57:01;;;;;;;6.28;2.67;;;15.90;99.90;;;;;;5073550;28;20390;-30
2022/11/09 09:59:40;;;;;;;8.50;2.83;;;16.10;99.90;;;;;;5072544;28;20112;-32
2022/11/09 10:02:21;;;;;;;6.65;2.65;;;16.10;99.90;;;;;;5072502;28;20059;-30
2022/11/09 10:04:47;;;;;;;9.15;2.70;;;16.00;99.90;;;;;;5076778;28;20408;-30
2022/11/09 10:07:28;;;;;;;9.35;3.10;;;15.70;99.90;;;;;;5077862;28;20133;-31
2022/11/09 10:10:25;;;;;;;5.07;2.80;;;15.60;99.90;;;;;;5076606;28;20105;-30
2022/11/09 10:13:20;;;;;;;7.70;2.88;;;15.50;99.90;;;;;;5075944;28;20083;-30
2022/11/09 10:16:12;;;;;;;6.53;2.78;;;15.70;99.90;;;;;;5075376;28;20037;-31
2022/11/09 10:18:57;;;;;;;5.63;2.53;;;15.70;99.90;;;;;;5056520;28;20048;-30
2022/11/09 10:21:50;;;;;;;5.88;2.50;;;15.70;99.90;;;;;;5075497;28;20097;-30
2022/11/09 10:24:42;;;;;;;7.13;2.30;;;15.60;99.90;;;;;;5076938;28;20106;-30
2022/11/09 10:27:24;;;;;;;8.15;2.75;;;15.90;99.90;;;;;;5077241;28;20354;-29
2022/11/09 10:29:50;;;;;;;8.02;2.67;;;16.10;99.90;;;;;;5076843;28;20084;-31
2022/11/09 10:32:21;;;;;;;8.63;2.70;;;16.20;99.90;;;;;;5076809;28;20044;-31
2022/11/09 10:35:05;;;;;;;7.32;2.60;;;16.10;99.90;;;;;;5075485;28;20520;-32
2022/11/09 10:37:39;;;;;;;12.38;2.97;;;16.00;99.90;;;;;;5077025;28;20417;-31
2022/11/09 10:40:08;;;;;;;9.45;2.50;;;16.10;99.90;;;;;;5075394;28;20040;-31
2022/11/09 10:42:34;;;;;;;8.05;2.67;;;16.40;99.90;;;;;;5075652;28;20041;-32
2022/11/09 10:45:11;;;;;;;7.38;2.90;;;16.70;99.90;;;;;;5075416;28;20151;-32
2022/11/09 10:47:49;;;;;;;8.10;2.85;;;17.30;99.90;;;;;;5075546;28;20076;-31
2022/11/09 10:50:26;;;;;;;8.02;2.55;;;17.60;99.90;;;;;;5075859;28;20062;-32
2022/11/09 10:53:06;;;;;;;8.55;2.53;;;17.60;99.90;;;;;;5075754;28;20086;-32
2022/11/09 10:55:35;;;;;;;8.38;2.30;;;17.60;99.90;;;;;;5075892;28;20036;-31
2022/11/09 10:58:29;;;;;;;5.47;2.83;;;17.60;99.90;;;;;;5075693;28;20059;-32
2022/11/09 11:01:16;;;;;;;7.03;2.90;;;17.60;99.90;;;;;;5075406;28;20509;-31
2022/11/09 11:03:43;;;;;;;4.95;2.05;;;17.40;99.90;;;;;;5074787;28;20046;-31
2022/11/09 11:06:21;;;;;;;7.38;2.55;;;17.10;99.90;;;;;;5074895;28;20036;-31
2022/11/09 11:08:48;;;;;;;10.00;3.40;;;17.00;99.90;;;;;;5075554;28;20072;-32
2022/11/09 11:11:24;;;;;;;6.50;2.30;;;17.20;99.90;;;;;;5077262;28;20083;-31
2022/11/09 11:14:07;;;;;;;4.60;2.67;;;17.30;99.90;;;;;;5075385;28;20044;-31
2022/11/09 11:16:34;;;;;;;6.53;2.65;;;17.40;99.90;;;;;;5075755;28;20032;-31
2022/11/09 11:19:01;;;;;;;8.68;2.38;;;17.50;99.90;;;;;;5075301;28;20076;-31
2022/11/09 11:21:27;;;;;;;11.93;2.85;;;17.30;99.90;;;;;;5076597;28;20269;-32
2022/11/09 11:24:17;;;;;;;7.35;2.53;;;17.00;99.90;;;;;;5074601;28;20128;-31
2022/11/09 11:27:27;;;;;;;6.95;2.42;;;16.70;99.90;;;;;;5074424;28;20040;-31
2022/11/09 11:30:05;;;;;;;8.88;2.40;;;16.70;99.90;;;;;;5073499;28;20056;-31
2022/11/09 11:32:31;;;;;;;8.23;2.42;;;16.60;99.90;;;;;;5075152;28;20051;-32
2022/11/09 11:34:57;;;;;;;8.13;2.60;;;16.30;99.90;;;;;;5074667;28;20036;-32
2022/11/09 11:37:54;;;;;;;10.82;3.13;;;16.10;99.90;;;;;;5075581;28;20050;-32
2022/11/09 11:40:37;;;;;;;8.40;2.95;;;15.80;99.90;;;;;;5075584;28;20082;-32
2022/11/09 11:43:21;;;;;;;10.40;2.53;;;15.60;99.90;;;;;;5074557;28;20083;-30
2022/11/09 11:45:52;;;;;;;9.50;2.45;;;15.40;99.90;;;;;;5074516;28;20390;-32
2022/11/09 11:48:27;;;;;;;7.20;2.15;;;15.40;99.90;;;;;;5073920;28;20036;-31
2022/11/09 11:50:56;;;;;;;7.28;3.08;;;15.20;99.90;;;;;;5073783;28;20401;-31
2022/11/09 11:53:53;;;;;;;6.80;2.40;;;15.10;99.90;;;;;;5072910;28;20040;-33
2022/11/09 11:56:38;;;;;;;5.30;2.13;;;15.00;99.90;;;;;;5073696;28;20119;-32
2022/11/09 11:59:18;;;;;;;5.43;2.30;;;14.90;99.90;;;;;;5074285;28;20444;-29
2022/11/09 12:02:29;;;;;;;5.85;1.92;;;14.80;99.90;;;;;;5074200;28;20033;-30
2022/11/09 12:05:25;;;;;;;11.23;2.60;;;14.70;99.90;;;;;;5015335;28;20038;-31
2022/11/09 12:08:10;;;;;;;7.57;2.38;;;14.60;99.90;;;;;;5072751;28;20093;-29
2022/11/09 12:10:45;;;;;;;4.53;2.05;;;14.70;99.90;;;;;;5072529;28;20072;-30
2022/11/09 12:13:30;;;;;;;7.00;2.10;;;15.20;99.90;;;;;;5072689;28;20433;-41
2022/11/09 12:16:04;;;;;;;7.78;2.85;;;15.50;99.90;;;;;;5073433;28;20377;-30
2022/11/09 12:19:15;;;;;;;7.03;2.80;;;15.40;99.90;;;;;;5073364;28;20115;-32
2022/11/09 12:21:47;;;;;;;7.78;2.38;;;15.30;99.90;;;;;;5065852;28;20052;-31
2022/11/09 12:24:43;;;;;;;5.82;2.05;;;15.10;99.90;;;;;;5073590;28;20076;-31
2022/11/09 12:27:42;;;;;;;7.03;2.13;;;15.10;99.90;;;;;;5073826;28;20094;-32
2022/11/09 12:30:16;;;;;;;8.90;2.35;;;15.10;99.90;;;;;;5073336;28;20036;-30
2022/11/09 12:32:48;;;;;;;;;;;15.10;99.90;;;;;;5074397;28;20052;-31
2022/11/09 12:35:29;;;;;;;9.70;2.88;;;15.20;99.90;;;;;;5056847;28;19923;-31
2022/11/09 12:38:02;;;;;;;8.35;2.60;;;16.20;99.90;;;;;;5073164;28;20033;-31
2022/11/09 12:40:33;;;;;;;7.47;2.35;;;17.20;99.90;;;;;;5072707;28;20071;-31
2022/11/09 12:43:20;;;;;;;6.50;2.00;;;17.90;99.90;;;;;;5072435;28;20052;-30
2022/11/09 12:45:48;;;;;;;5.30;2.50;;;17.90;99.90;;;;;;5072232;28;20402;-32
2022/11/09 12:48:28;;;;;;;5.03;2.35;;;17.50;99.90;;;;;;5072133;28;20033;-31
2022/11/09 12:50:55;;;;;;;6.55;2.63;;;17.20;99.90;;;;;;5072508;28;20051;-30
2022/11/09 12:53:27;;;;;;;7.97;3.20;;;16.80;99.90;;;;;;5071611;28;20051;-31
2022/11/09 12:56:07;;;;;;;9.43;2.63;;;16.60;99.90;;;;;;5073197;28;20036;-31
2022/11/09 12:58:35;;;;;;;6.25;2.20;;;16.40;99.90;;;;;;5071812;28;20033;-31
2022/11/09 13:01:05;;;;;;;8.73;2.33;;;16.20;99.90;;;;;;5071897;28;20091;-30
2022/11/09 13:03:33;;;;;;;7.82;2.72;;;15.90;99.90;;;;;;5072063;28;20489;-31